Time;durP1;ratioP1;P1;durP2;ratioP2;P2;SDS_P1;SDS_P2;PMS_P1;PMS_P2;Temp;Humidity;BMP_temperature;BMP_pressure;BME280_temperature;BME280_humidity;BME280_pressure;Samples;Min_cycle;Max_cycle;Signal;HPM_P1;HPM_P2
2022/06/19 00:01:58;;;;;;;16.37;7.08;;;;;;;15.81;100.00;101052.13;1578025;89;21158;-90
2022/06/19 00:04:24;;;;;;;16.40;6.62;;;;;;;15.88;100.00;101076.55;1578010;89;21172;-90
2022/06/19 00:06:50;;;;;;;11.08;6.58;;;;;;;15.84;100.00;101074.66;1578438;89;21113;-92
2022/06/19 00:09:17;;;;;;;16.60;6.42;;;;;;;15.84;100.00;101074.66;1578239;89;21676;-93
2022/06/19 00:11:43;;;;;;;14.73;6.45;;;;;;;15.83;100.00;101078.49;1578298;90;21075;-93
2022/06/19 00:14:10;;;;;;;12.07;5.87;;;;;;;15.80;100.00;101081.77;1578275;89;21071;-92
2022/06/19 00:16:36;;;;;;;13.48;6.72;;;;;;;15.79;100.00;101089.64;1578099;89;21844;-90
2022/06/19 00:19:05;;;;;;;16.02;6.95;;;;;;;15.74;100.00;101089.15;1577802;89;21074;-90
2022/06/19 00:21:31;;;;;;;15.75;6.92;;;;;;;15.74;100.00;101089.70;1578086;89;21146;-91
2022/06/19 00:23:57;;;;;;;15.85;6.62;;;;;;;15.71;100.00;101088.36;1578166;89;21089;-90
2022/06/19 00:26:23;;;;;;;14.80;6.78;;;;;;;15.66;100.00;101085.63;1578094;89;20927;-91
2022/06/19 00:28:49;;;;;;;13.62;6.37;;;;;;;15.64;100.00;101083.73;1578155;89;21171;-91
2022/06/19 00:31:15;;;;;;;16.05;6.62;;;;;;;15.62;100.00;101088.11;1570101;89;20996;-90
2022/06/19 00:33:42;;;;;;;10.20;6.10;;;;;;;15.59;100.00;101090.58;1569489;89;21127;-91
2022/06/19 00:36:08;;;;;;;14.35;6.85;;;;;;;15.56;100.00;101092.47;1683395;83;21009;-90
2022/06/19 00:38:34;;;;;;;14.63;7.00;;;;;;;15.55;100.00;101100.37;1715533;83;21532;-90
2022/06/19 00:41:02;;;;;;;12.75;6.87;;;;;;;15.52;100.00;101099.56;1715647;83;21042;-90
2022/06/19 00:43:29;;;;;;;13.53;6.70;;;;;;;15.47;100.00;101096.35;1715612;83;20998;-90
2022/06/19 00:46:06;;;;;;;14.98;7.15;;;;;;;15.45;100.00;101093.09;1715554;83;20990;-90
2022/06/19 00:48:37;;;;;;;11.65;6.08;;;;;;;15.40;100.00;101102.63;1748136;82;21002;-91
2022/06/19 00:51:05;;;;;;;13.83;7.15;;;;;;;15.36;100.00;101104.28;1751336;82;20997;-91
2022/06/19 00:53:42;;;;;;;13.85;6.53;;;;;;;15.34;100.00;101097.76;1751721;82;21479;-91
2022/06/19 00:56:18;;;;;;;13.58;6.60;;;;;;;15.34;100.00;101103.19;1715486;83;21436;-92
2022/06/19 00:58:48;;;;;;;13.93;6.50;;;;;;;15.33;100.00;101102.93;1715604;83;21043;-91
2022/06/19 01:01:18;;;;;;;9.78;5.95;;;;;;;15.27;100.00;101102.69;1715799;83;21550;-91
2022/06/19 01:04:04;;;;;;;17.70;6.47;;;;;;;15.27;100.00;101101.89;1715577;83;21019;-91
2022/06/19 01:06:31;;;;;;;10.18;5.50;;;;;;;15.23;100.00;101100.25;1715649;83;21370;-91
2022/06/19 01:08:58;;;;;;;11.35;5.45;;;;;;;15.19;100.00;101100.55;1715564;83;20947;-91
2022/06/19 01:11:30;;;;;;;12.53;6.40;;;;;;;15.16;100.00;101107.34;1715712;83;21586;-92
2022/06/19 01:13:55;;;;;;;10.20;6.10;;;;;;;15.17;100.00;101102.72;1715527;83;21054;-91
2022/06/19 01:16:22;;;;;;;12.70;6.15;;;;;;;15.15;100.00;101100.85;1716071;83;21018;-92
2022/06/19 01:18:48;;;;;;;13.75;5.90;;;;;;;15.14;100.00;101107.34;1715709;83;21127;-92
2022/06/19 01:21:25;;;;;;;13.38;6.10;;;;;;;15.12;100.00;101108.19;1715863;83;20962;-91
2022/06/19 01:24:05;;;;;;;10.95;6.30;;;;;;;15.10;100.00;101108.45;1713838;83;21117;-92
2022/06/19 01:26:36;;;;;;;11.22;6.03;;;;;;;15.08;100.00;101113.34;1716218;83;21094;-92
2022/06/19 01:29:03;;;;;;;9.95;5.80;;;;;;;15.07;100.00;101112.28;1712502;83;21086;-92
2022/06/19 01:31:43;;;;;;;13.70;6.22;;;;;;;15.01;100.00;101110.12;1709389;83;21165;-92
2022/06/19 01:34:26;;;;;;;10.85;6.55;;;;;;;14.98;100.00;101116.10;1708705;84;21102;-93
2022/06/19 01:37:20;;;;;;;12.35;6.12;;;;;;;14.99;100.00;101110.38;1654794;86;21058;-92
2022/06/19 01:39:56;;;;;;;8.30;5.42;;;;;;;14.99;100.00;101115.81;1654834;86;21582;-93
2022/06/19 01:42:23;;;;;;;8.30;5.15;;;;;;;14.98;100.00;101116.91;1603206;89;21025;-92
2022/06/19 01:44:53;;;;;;;13.58;6.15;;;;;;;14.96;100.00;101117.72;1603213;89;21111;-92
2022/06/19 01:47:23;;;;;;;12.45;5.97;;;;;;;14.95;100.00;101117.47;1552350;92;21062;-92
2022/06/19 01:49:52;;;;;;;13.05;5.50;;;;;;;14.94;100.00;101115.85;1552271;92;21097;-93
2022/06/19 01:52:19;;;;;;;12.60;5.50;;;;;;;14.92;100.00;101115.85;1559544;91;21154;-93
2022/06/19 01:54:53;;;;;;;11.73;5.90;;;;;;;14.93;100.00;101123.70;1569071;91;21095;-93
2022/06/19 01:57:21;;;;;;;10.20;5.75;;;;;;;14.95;100.00;101124.25;1567037;91;21370;-93
2022/06/19 01:59:48;;;;;;;10.65;5.87;;;;;;;14.97;100.00;101126.67;1568937;91;21119;-93
2022/06/19 02:02:15;;;;;;;12.37;6.05;;;;;;;14.98;100.00;101129.13;1569014;91;21634;-93
2022/06/19 02:04:43;;;;;;;11.30;5.90;;;;;;;15.04;100.00;101136.71;1568889;91;21150;-93
2022/06/19 02:07:17;;;;;;;11.60;5.65;;;;;;;15.07;100.00;101130.73;1568889;91;21117;-93
2022/06/19 02:09:44;;;;;;;12.85;5.80;;;;;;;15.12;100.00;101136.14;1564538;91;21130;-92
2022/06/19 02:12:11;;;;;;;13.68;5.60;;;;;;;15.16;100.00;101135.05;1568775;91;21059;-92
2022/06/19 02:14:37;;;;;;;15.15;6.30;;;;;;;15.21;100.00;101138.55;1593374;89;22319;-93
2022/06/19 02:17:08;;;;;;;16.40;6.12;;;;;;;15.30;100.00;101135.27;1605919;89;21029;-93
2022/06/19 02:19:34;;;;;;;10.58;6.17;;;;;;;15.37;100.00;101131.70;1583624;90;21070;-93
2022/06/19 02:22:00;;;;;;;14.63;5.95;;;;;;;15.42;100.00;101133.04;1554867;92;21161;-93
2022/06/19 02:24:27;;;;;;;14.53;6.17;;;;;;;15.49;100.00;101130.81;1554785;92;21691;-93
2022/06/19 02:26:56;;;;;;;9.50;5.50;;;;;;;15.56;100.00;101138.66;1555033;92;21002;-94
2022/06/19 02:29:22;;;;;;;10.70;5.72;;;;;;;15.62;100.00;101145.72;1554916;92;21049;-92
2022/06/19 02:31:52;;;;;;;12.25;6.17;;;;;;;15.68;100.00;101145.98;1545538;91;21050;-92
2022/06/19 02:34:37;;;;;;;10.20;5.97;;;;;;;15.74;100.00;101153.02;1578280;90;21182;-93
2022/06/19 02:37:08;;;;;;;11.35;5.42;;;;;;;15.83;100.00;101148.60;1578197;90;21050;-92
2022/06/19 02:40:06;;;;;;;13.28;5.22;;;;;;;15.98;100.00;101143.61;1632766;86;21026;-92
2022/06/19 02:42:42;;;;;;;11.57;5.72;;;;;;;16.10;100.00;101139.98;1639645;87;21046;-92
2022/06/19 02:45:13;;;;;;;10.90;5.35;;;;;;;16.29;100.00;101141.45;1654225;86;21137;-93
2022/06/19 02:47:40;;;;;;;10.05;5.83;;;;;;;16.63;100.00;101141.99;1538961;93;21619;-92
2022/06/19 02:50:11;;;;;;;9.83;4.92;;;;;;;17.16;100.00;101145.28;1538907;93;21121;-92
2022/06/19 02:52:37;;;;;;;7.50;4.87;;;;;;;17.68;100.00;101147.62;1539079;93;21180;-92
2022/06/19 02:55:04;;;;;;;7.67;4.70;;;;;;;18.24;100.00;101141.34;1538920;93;21050;-92
2022/06/19 02:57:30;;;;;;;11.75;4.50;;;;;;;18.86;100.00;101147.13;1538829;93;21165;-91
2022/06/19 02:59:56;;;;;;;8.73;4.78;;;;;;;19.27;100.00;101149.31;1538933;93;21910;-92
2022/06/19 03:02:23;;;;;;;7.50;4.83;;;;;;;19.41;100.00;101149.31;1538781;93;21058;-90
2022/06/19 03:04:57;;;;;;;12.82;5.05;;;;;;;19.36;100.00;101146.67;1538886;93;21067;-90
2022/06/19 03:07:25;;;;;;;8.83;5.15;;;;;;;19.27;100.00;101144.41;1513914;94;21117;-89
2022/06/19 03:09:51;;;;;;;7.15;4.53;;;;;;;19.23;100.00;101139.28;1513691;94;21108;-90
2022/06/19 03:12:17;;;;;;;9.20;5.08;;;;;;;19.37;100.00;101140.08;1514031;94;22028;-91
2022/06/19 03:14:44;;;;;;;12.78;5.10;;;;;;;19.80;100.00;101140.30;1532053;93;21105;-90
2022/06/19 03:17:20;;;;;;;8.80;5.10;;;;;;;20.43;100.00;101127.78;1533506;93;21082;-90
2022/06/19 03:19:47;;;;;;;9.40;4.80;;;;;;;21.22;100.00;101128.16;1512502;94;21050;-90
2022/06/19 03:22:13;;;;;;;8.03;4.28;;;;;;;21.87;100.00;101127.30;1510274;93;21595;-90
2022/06/19 03:24:40;;;;;;;9.40;4.55;;;;;;;22.60;100.00;101126.00;1502843;95;21149;-89
2022/06/19 03:27:06;;;;;;;7.03;4.22;;;;;;;23.26;100.00;101128.30;1502734;94;21210;-89
2022/06/19 03:29:33;;;;;;;7.75;4.45;;;;;;;23.94;100.00;101133.70;1502856;95;21702;-88
2022/06/19 03:31:59;;;;;;;6.58;4.10;;;;;;;24.47;100.00;101129.31;1501627;95;21110;-88
2022/06/19 03:34:25;;;;;;;7.92;3.95;;;;;;;24.90;100.00;101129.35;1501753;95;21144;-89
2022/06/19 03:36:51;;;;;;;6.92;3.83;;;;;;;25.34;100.00;101125.45;1501667;95;21025;-89
2022/06/19 03:39:18;;;;;;;8.08;3.90;;;;;;;25.71;100.00;101132.30;1501675;95;21023;-89
2022/06/19 03:41:44;;;;;;;6.42;3.58;;;;;;;26.18;100.00;101135.03;1501805;95;21538;-89
2022/06/19 03:44:10;;;;;;;8.20;3.87;;;;;;;26.60;100.00;101133.20;1508543;94;21069;-89
2022/06/19 03:46:37;;;;;;;6.42;4.17;;;;;;;27.08;100.00;101147.23;1523300;94;21131;-87
2022/06/19 03:49:04;;;;;;;9.30;4.85;;;;;;;27.52;100.00;101147.66;1523415;94;22062;-89
2022/06/19 03:51:30;;;;;;;6.47;4.30;;;;;;;27.93;95.85;101149.55;1523117;94;21448;-87
2022/06/19 03:53:57;;;;;;;8.83;4.42;;;;;;;28.39;92.56;101157.39;1523194;94;21163;-88
2022/06/19 03:56:31;;;;;;;6.42;4.08;;;;;;;28.78;87.30;101155.92;1523241;94;21074;-88
2022/06/19 03:58:58;;;;;;;6.28;4.17;;;;;;;29.25;86.11;101156.11;1523230;94;21122;-88
2022/06/19 04:01:31;;;;;;;8.55;3.92;;;;;;;29.67;78.42;101152.95;1523382;94;21178;-88
2022/06/19 04:03:58;;;;;;;5.67;3.92;;;;;;;29.85;76.31;101153.38;1575184;86;21109;-88
2022/06/19 04:06:28;;;;;;;8.43;4.28;;;;;;;30.29;71.58;101163.05;1620906;88;21105;-88
2022/06/19 04:08:56;;;;;;;6.17;4.30;;;;;;;30.71;70.36;101162.68;1620644;88;21094;-87
2022/06/19 04:11:24;;;;;;;6.58;3.92;;;;;;;31.08;65.38;101167.97;1620718;88;21094;-87
2022/06/19 04:13:54;;;;;;;5.53;4.12;;;;;;;31.47;65.23;101166.86;1620481;88;21885;-88
2022/06/19 04:16:25;;;;;;;7.78;3.85;;;;;;;31.96;61.08;101163.34;1656579;85;21026;-87
2022/06/19 04:18:53;;;;;;;5.87;3.95;;;;;;;32.24;60.38;101163.44;1651229;86;20971;-88
2022/06/19 04:21:23;;;;;;;4.72;3.47;;;;;;;32.57;59.25;101171.30;1684790;85;21468;-86
2022/06/19 04:23:57;;;;;;;7.00;4.05;;;;;;;32.83;57.16;101172.91;1685059;85;21149;-88
2022/06/19 04:26:26;;;;;;;4.85;3.42;;;;;;;32.89;55.31;101170.52;1684722;85;21531;-88
2022/06/19 04:28:53;;;;;;;6.05;3.77;;;;;;;33.20;53.76;101171.09;1684733;85;21069;-88
2022/06/19 04:31:19;;;;;;;6.47;4.25;;;;;;;33.76;52.96;101174.78;1701319;83;21026;-88
2022/06/19 04:33:45;;;;;;;8.93;4.28;;;;;;;34.36;50.69;101171.71;1715554;83;21006;-87
2022/06/19 04:36:16;;;;;;;5.90;4.00;;;;;;;34.89;49.56;101168.34;1715892;83;20868;-88
2022/06/19 04:38:44;;;;;;;5.50;3.72;;;;;;;35.05;47.64;101167.81;1715793;83;21093;-88
2022/06/19 04:41:20;;;;;;;12.35;3.75;;;;;;;35.11;47.14;101167.55;1715542;83;21595;-89
2022/06/19 04:43:47;;;;;;;6.35;3.90;;;;;;;35.44;45.80;101170.81;1704135;84;21649;-87
2022/06/19 04:46:13;;;;;;;5.12;3.90;;;;;;;35.81;44.74;101174.84;1704073;84;21039;-87
2022/06/19 04:48:39;;;;;;;6.80;4.08;;;;;;;36.02;44.07;101175.95;1704265;84;21112;-87
2022/06/19 04:51:07;;;;;;;7.55;3.98;;;;;;;36.26;43.85;101175.44;1704306;84;21890;-87
2022/06/19 04:53:37;;;;;;;7.40;4.00;;;;;;;36.56;43.24;101176.63;1704483;84;21516;-88
2022/06/19 04:56:03;;;;;;;5.35;3.50;;;;;;;36.73;42.55;101183.18;1703673;83;21074;-86
2022/06/19 04:58:30;;;;;;;5.58;3.90;;;;;;;36.80;41.31;101183.87;1704366;84;21107;-86
2022/06/19 05:00:56;;;;;;;6.65;3.47;;;;;;;36.72;41.40;101179.58;1704275;84;21086;-87
2022/06/19 05:03:24;;;;;;;4.72;3.35;;;;;;;36.86;40.37;101184.77;1704293;84;21074;-87
2022/06/19 05:05:53;;;;;;;5.08;3.25;;;;;;;36.95;39.77;101191.44;1704456;84;21487;-87
2022/06/19 05:08:21;;;;;;;5.85;3.90;;;;;;;36.88;39.55;101190.14;1703930;84;21051;-87
2022/06/19 05:10:48;;;;;;;8.05;3.60;;;;;;;37.01;38.76;101189.76;1704266;84;21072;-88
2022/06/19 05:13:20;;;;;;;6.53;3.70;;;;;;;37.16;39.00;101191.70;1704232;84;21476;-89
2022/06/19 05:15:48;;;;;;;4.78;3.87;;;;;;;37.81;37.19;101179.22;1693815;84;21314;-88
2022/06/19 05:18:16;;;;;;;6.40;3.52;;;;;;;37.81;37.19;101179.22;1685458;85;20995;-87
2022/06/19 05:20:43;;;;;;;3.98;3.52;;;;;;;38.23;36.76;101195.02;1685343;85;21094;-88
2022/06/19 05:23:10;;;;;;;4.67;3.40;;;;;;;38.33;36.81;101195.41;1685243;85;21090;-87
2022/06/19 05:25:37;;;;;;;6.45;3.80;;;;;;;38.83;36.04;101196.42;1685237;85;21535;-87
2022/06/19 05:28:03;;;;;;;5.72;3.50;;;;;;;39.03;36.09;101188.48;1685267;85;21146;-87
2022/06/19 05:30:29;;;;;;;8.85;3.50;;;;;;;39.19;35.61;101191.28;1684807;84;21587;-87
2022/06/19 05:32:55;;;;;;;6.42;3.83;;;;;;;39.20;35.05;101191.45;1685868;82;20925;-86
2022/06/19 05:35:21;;;;;;;5.12;3.65;;;;;;;39.06;35.02;101198.87;1749075;82;21513;-87
2022/06/19 05:37:47;;;;;;;5.65;3.72;;;;;;;39.21;34.65;101200.09;1748970;82;20895;-87
2022/06/19 05:40:13;;;;;;;7.83;4.03;;;;;;;39.38;33.91;101199.45;1748927;82;21092;-87
2022/06/19 05:42:39;;;;;;;7.40;3.80;;;;;;;39.19;33.37;101196.92;1749033;82;20966;-86
2022/06/19 05:45:06;;;;;;;8.65;3.80;;;;;;;39.25;34.08;101200.78;1749098;82;21624;-87
2022/06/19 05:47:32;;;;;;;8.03;3.65;;;;;;;39.64;33.81;101200.33;1748914;82;21510;-87
2022/06/19 05:49:58;;;;;;;5.62;3.65;;;;;;;40.27;33.26;101196.70;1749327;81;20878;-86
2022/06/19 05:52:24;;;;;;;5.30;3.87;;;;;;;40.68;32.84;101197.20;1748970;82;21816;-88
2022/06/19 05:54:53;;;;;;;4.12;3.70;;;;;;;41.01;31.60;101195.52;1748966;81;20927;-87
2022/06/19 05:57:21;;;;;;;5.45;3.90;;;;;;;41.30;31.63;101202.39;1749005;82;20982;-87
2022/06/19 05:59:47;;;;;;;6.75;3.75;;;;;;;41.58;30.88;101204.03;1718066;82;21027;-88
2022/06/19 06:02:16;;;;;;;4.22;3.42;;;;;;;41.74;30.58;101208.06;1718283;82;20849;-88
2022/06/19 06:04:42;;;;;;;7.85;3.87;;;;;;;41.98;30.10;101203.53;1717909;82;21141;-87
2022/06/19 06:07:10;;;;;;;7.15;3.75;;;;;;;42.24;30.60;101202.53;1717915;82;21126;-87
2022/06/19 06:09:37;;;;;;;5.60;3.58;;;;;;;42.76;29.66;101201.64;1718131;82;21003;-86
2022/06/19 06:12:05;;;;;;;8.08;3.90;;;;;;;42.99;29.07;101199.48;1718234;83;21082;-88
2022/06/19 06:14:31;;;;;;;8.65;4.03;;;;;;;42.95;29.10;101201.06;1717843;82;21532;-88
2022/06/19 06:16:57;;;;;;;7.15;3.90;;;;;;;43.22;28.43;101197.47;1717957;82;21161;-87
2022/06/19 06:19:23;;;;;;;6.08;4.25;;;;;;;43.45;28.91;101198.88;1717880;83;21054;-88
2022/06/19 06:21:49;;;;;;;7.78;4.22;;;;;;;43.27;27.56;101191.16;1718133;82;21058;-87
2022/06/19 06:24:16;;;;;;;4.30;3.83;;;;;;;42.99;27.15;101196.64;1718168;82;20868;-87
2022/06/19 06:26:42;;;;;;;7.10;3.83;;;;;;;42.64;28.02;101193.40;1718079;83;21078;-86
2022/06/19 06:29:09;;;;;;;5.97;3.87;;;;;;;43.15;28.48;101190.67;1718033;82;21062;-86
2022/06/19 06:31:36;;;;;;;5.62;3.83;;;;;;;43.58;27.54;101190.20;1709766;81;21251;-87
2022/06/19 06:34:03;;;;;;;4.67;3.52;;;;;;;43.84;26.99;101185.57;1699760;84;21032;-87
2022/06/19 06:36:30;;;;;;;11.45;4.50;;;;;;;43.95;26.37;101185.88;1700026;84;21063;-88
2022/06/19 06:38:56;;;;;;;4.22;3.83;;;;;;;43.89;26.31;101189.16;1700131;84;21571;-88
2022/06/19 06:41:23;;;;;;;4.03;3.70;;;;;;;44.12;25.73;101187.69;1700194;84;21148;-88
2022/06/19 06:43:49;;;;;;;12.07;4.08;;;;;;;43.76;25.56;101182.27;1700123;84;21019;-87
2022/06/19 06:46:20;;;;;;;6.58;3.90;;;;;;;43.79;25.82;101179.89;1700210;84;21064;-85
2022/06/19 06:48:47;;;;;;;6.20;4.03;;;;;;;44.11;26.46;101183.28;1700104;84;21145;-86
2022/06/19 06:51:18;;;;;;;5.12;3.50;;;;;;;44.59;25.74;101181.30;1700260;84;21032;-86
2022/06/19 06:53:44;;;;;;;3.63;3.33;;;;;;;44.65;25.61;101177.97;1700327;84;21138;-86
2022/06/19 06:56:10;;;;;;;4.20;3.72;;;;;;;44.71;25.10;101173.02;1705187;83;21051;-88
2022/06/19 06:58:38;;;;;;;4.75;3.30;;;;;;;44.25;25.18;101181.17;1717653;83;21550;-84
2022/06/19 07:01:10;;;;;;;4.35;3.62;;;;;;;44.66;25.33;101177.33;1717506;83;21489;-87
2022/06/19 07:03:36;;;;;;;5.30;3.75;;;;;;;44.85;25.02;101181.63;1717615;83;21604;-89
2022/06/19 07:06:03;;;;;;;9.03;3.85;;;;;;;45.07;24.39;101177.68;1683315;85;21036;-88
2022/06/19 07:08:29;;;;;;;9.58;3.70;;;;;;;45.40;23.51;101178.98;1683167;85;21066;-88
2022/06/19 07:10:54;;;;;;;4.90;3.87;;;;;;;45.54;23.90;101176.03;1683304;85;21744;-88
2022/06/19 07:13:20;;;;;;;4.97;3.50;;;;;;;45.73;23.30;101171.68;1683110;85;20908;-88
2022/06/19 07:15:46;;;;;;;4.47;4.08;;;;;;;45.76;23.84;101177.81;1683081;84;21012;-86
2022/06/19 07:18:12;;;;;;;6.00;4.10;;;;;;;46.24;23.77;101183.89;1683177;85;21156;-87
2022/06/19 07:20:38;;;;;;;7.72;4.03;;;;;;;46.48;22.67;101184.38;1683196;85;20901;-87
2022/06/19 07:23:05;;;;;;;5.12;4.40;;;;;;;45.74;22.61;101189.55;1683279;85;20924;-88
2022/06/19 07:25:31;;;;;;;4.85;4.10;;;;;;;45.39;23.13;101183.11;1683494;85;21067;-89
2022/06/19 07:27:59;;;;;;;4.17;3.72;;;;;;;45.33;22.96;101189.31;1683523;85;21650;-88
2022/06/19 07:30:27;;;;;;;4.17;3.75;;;;;;;45.72;22.90;101186.43;1682645;85;21138;-88
2022/06/19 07:32:54;;;;;;;6.05;3.80;;;;;;;45.68;22.99;101198.00;1704131;84;21048;-85
2022/06/19 07:35:20;;;;;;;4.53;3.58;;;;;;;46.07;22.79;101192.86;1707959;84;21029;-87
2022/06/19 07:37:47;;;;;;;4.87;4.05;;;;;;;46.25;22.48;101190.41;1743803;82;21050;-86
2022/06/19 07:40:15;;;;;;;4.20;3.70;;;;;;;46.15;22.07;101194.78;1743830;82;21404;-87
2022/06/19 07:42:42;;;;;;;4.83;3.75;;;;;;;45.77;21.75;101194.27;1743676;82;21086;-88
2022/06/19 07:45:09;;;;;;;5.05;3.52;;;;;;;45.14;22.97;101192.19;1743800;82;21558;-87
2022/06/19 07:50:21;;;;;;;5.47;3.20;;;;;;;43.40;22.61;101193.83;1743462;82;21042;-87
2022/06/19 07:52:49;;;;;;;8.88;3.60;;;;;;;41.45;23.80;101187.10;1743728;82;21053;-87
2022/06/19 07:55:28;;;;;;;6.67;3.35;;;;;;;40.17;25.86;101191.53;1743649;82;21070;-87
2022/06/19 07:57:54;;;;;;;6.65;3.50;;;;;;;40.54;25.24;101191.39;1740597;82;20983;-86
2022/06/19 08:00:25;;;;;;;7.33;3.62;;;;;;;40.60;25.71;101192.39;1743903;82;21073;-87
2022/06/19 08:02:52;;;;;;;4.08;3.10;;;;;;;41.13;25.53;101189.67;1713429;83;21481;-85
2022/06/19 08:05:22;;;;;;;3.77;3.30;;;;;;;41.84;25.56;101187.69;1713453;83;21566;-87
2022/06/19 08:07:50;;;;;;;4.35;3.20;;;;;;;42.67;24.87;101190.26;1713256;83;21122;-85
2022/06/19 08:10:21;;;;;;;11.10;3.47;;;;;;;43.39;24.53;101180.09;1709345;83;21359;-88
2022/06/19 08:12:48;;;;;;;5.12;3.40;;;;;;;44.43;24.28;101183.16;1688234;85;21083;-87
2022/06/19 08:15:14;;;;;;;3.37;3.05;;;;;;;44.89;23.31;101178.62;1688322;85;21535;-87
2022/06/19 08:17:40;;;;;;;6.72;2.55;;;;;;;45.27;23.21;101180.69;1688292;85;21109;-88
2022/06/19 08:20:08;;;;;;;3.02;2.55;;;;;;;45.39;22.61;101180.27;1688284;85;21216;-87
2022/06/19 08:22:34;;;;;;;6.15;3.35;;;;;;;45.30;21.56;101187.44;1688358;85;21054;-87
2022/06/19 08:24:59;;;;;;;4.60;2.87;;;;;;;44.10;21.23;101181.08;1688456;85;20975;-88
2022/06/19 08:27:25;;;;;;;7.33;2.80;;;;;;;42.23;22.79;101189.00;1688337;85;20896;-88
2022/06/19 08:29:51;;;;;;;3.58;2.92;;;;;;;40.90;24.22;101185.97;1688306;85;20899;-87
2022/06/19 08:32:17;;;;;;;4.92;3.08;;;;;;;40.00;25.11;101191.45;1686201;84;21097;-88
2022/06/19 08:34:43;;;;;;;7.80;2.67;;;;;;;39.71;26.13;101187.44;1684067;85;20970;-89
2022/06/19 08:37:11;;;;;;;5.60;3.00;;;;;;;40.20;26.67;101180.77;1684326;85;20904;-90
2022/06/19 08:39:38;;;;;;;3.60;2.90;;;;;;;41.07;25.05;101176.73;1684559;85;21015;-87
2022/06/19 08:42:32;;;;;;;3.87;2.85;;;;;;;41.80;24.65;101178.52;1684177;85;21031;-87
2022/06/19 08:45:25;;;;;;;10.48;3.00;;;;;;;42.34;24.43;101173.02;1684332;85;21128;-88
2022/06/19 08:48:23;;;;;;;6.67;2.90;;;;;;;42.98;23.70;101171.75;1684070;85;21447;-87
2022/06/19 08:51:02;;;;;;;3.42;2.87;;;;;;;43.37;23.72;101174.12;1684396;85;21004;-86
2022/06/19 08:54:14;;;;;;;4.53;2.98;;;;;;;43.76;23.62;101170.91;1682302;85;21567;-88
2022/06/19 08:56:46;;;;;;;10.28;3.12;;;;;;;43.86;22.30;101171.66;1680930;85;20963;-87
2022/06/19 08:59:49;;;;;;;7.65;3.37;;;;;;;42.43;22.72;101172.41;1665348;85;22013;-87
2022/06/19 09:02:37;;;;;;;5.17;3.10;;;;;;;41.20;23.39;101168.98;1633997;87;21102;-87
2022/06/19 09:08:14;;;;;;;4.17;2.80;;;;;;;39.19;25.11;101175.77;1574232;91;21125;-88
2022/06/19 09:10:51;;;;;;;5.70;2.45;;;;;;;39.09;24.40;101175.42;1616022;88;21448;-88
2022/06/19 09:13:57;;;;;;;6.28;2.70;;;;;;;39.41;24.84;101163.29;1661989;86;21965;-86
2022/06/19 09:16:38;;;;;;;3.33;2.52;;;;;;;40.17;24.09;101161.25;1661092;86;21145;-89
2022/06/19 09:19:15;;;;;;;4.28;2.33;;;;;;;40.86;24.98;101161.28;1661843;86;21035;-86
2022/06/19 09:21:46;;;;;;;7.22;2.40;;;;;;;41.71;24.08;101158.02;1662255;86;21058;-89
2022/06/19 09:24:45;;;;;;;4.97;3.00;;;;;;;42.14;22.66;101157.80;1607671;89;21168;-85
2022/06/19 09:27:14;;;;;;;5.15;2.90;;;;;;;42.18;22.63;101155.59;1604134;89;21266;-85
2022/06/19 09:30:03;;;;;;;4.83;2.67;;;;;;;42.13;22.67;101160.48;1607709;89;21048;-88
2022/06/19 09:32:37;;;;;;;8.08;3.10;;;;;;;41.99;22.49;101163.25;1604014;88;21144;-86
2022/06/19 09:35:14;;;;;;;2.80;2.55;;;;;;;41.75;22.58;101158.70;1597049;89;21111;-89
2022/06/19 09:37:51;;;;;;;4.05;2.42;;;;;;;41.48;22.38;101153.03;1544737;91;21110;-87
2022/06/19 09:40:30;;;;;;;6.80;3.08;;;;;;;41.41;22.11;101145.39;1502742;95;22094;-87
2022/06/19 09:43:24;;;;;;;5.00;2.58;;;;;;;40.97;22.98;101155.23;1485524;95;21117;-88
2022/06/19 09:45:58;;;;;;;4.53;2.50;;;;;;;41.08;23.04;101146.56;1504013;95;21106;-87
2022/06/19 09:48:32;;;;;;;7.67;2.92;;;;;;;40.80;23.00;101148.95;1504086;95;21106;-88
2022/06/19 09:51:07;;;;;;;3.17;2.58;;;;;;;40.44;23.42;101147.30;1504171;95;21134;-88
2022/06/19 09:53:56;;;;;;;4.28;2.67;;;;;;;40.25;23.77;101142.71;1501185;95;21575;-87
2022/06/19 09:56:54;;;;;;;3.33;2.58;;;;;;;39.32;23.02;101144.81;1479050;96;21555;-87
2022/06/19 09:59:38;;;;;;;8.53;2.92;;;;;;;38.96;23.93;101144.98;1491631;95;21666;-87
2022/06/19 10:02:44;;;;;;;5.85;2.87;;;;;;;39.10;24.10;101140.38;1450049;97;21119;-89
2022/06/19 10:05:40;;;;;;;7.90;3.12;;;;;;;38.88;24.19;101135.91;1425935;100;21317;-89
2022/06/19 10:08:46;;;;;;;3.77;3.00;;;;;;;38.78;24.72;101139.16;1366997;104;22598;-89
2022/06/19 10:11:28;;;;;;;8.83;3.10;;;;;;;38.82;24.04;101140.48;1367007;105;21216;-90
2022/06/19 10:14:10;;;;;;;;;;;;;;;38.73;23.72;101139.70;1371899;103;20993;-89
2022/06/19 10:16:55;;;;;;;4.53;2.75;;;;;;;38.67;24.25;101133.62;1385846;102;20601;-91
2022/06/19 10:19:47;;;;;;;3.37;2.77;;;;;;;38.48;23.93;101137.52;1377862;104;21257;-89
2022/06/19 10:22:39;;;;;;;4.93;2.70;;;;;;;38.38;24.63;101132.28;1378333;104;21565;-90
2022/06/19 10:25:54;;;;;;;7.20;3.17;;;;;;;38.60;24.18;101136.81;1377892;104;21135;-88
2022/06/19 10:28:47;;;;;;;3.40;2.55;;;;;;;38.91;25.05;101127.19;1378011;103;21118;-91
2022/06/19 10:31:27;;;;;;;6.00;2.80;;;;;;;38.64;24.22;101121.22;1378328;104;21129;-90
2022/06/19 10:34:18;;;;;;;4.72;2.70;;;;;;;38.42;24.55;101124.38;1370591;103;21646;-90
2022/06/19 10:37:23;;;;;;;5.10;3.00;;;;;;;38.36;23.92;101117.86;1382558;103;21210;-91
2022/06/19 10:39:57;;;;;;;4.10;2.58;;;;;;;38.14;23.96;101118.98;1349409;105;21160;-91
2022/06/19 10:42:40;;;;;;;3.90;2.50;;;;;;;38.42;25.04;101112.53;1365111;104;21212;-86
2022/06/19 10:45:14;;;;;;;5.33;2.70;;;;;;;38.55;24.92;101117.61;1414945;97;21079;-87
2022/06/19 10:48:10;;;;;;;3.55;2.42;;;;;;;38.38;24.71;101115.37;1457198;98;21184;-87
2022/06/19 10:50:54;;;;;;;6.33;2.40;;;;;;;38.20;24.65;101117.84;1457307;97;22195;-85
2022/06/19 10:53:49;;;;;;;6.78;2.20;;;;;;;38.14;24.72;101123.82;1478412;95;21094;-88
2022/06/19 10:56:45;;;;;;;4.87;2.45;;;;;;;38.17;24.81;101117.31;1496902;95;21648;-85
2022/06/19 10:59:13;;;;;;;4.05;2.22;;;;;;;38.13;25.08;101126.47;1493440;95;21169;-87
2022/06/19 11:04:39;;;;;;;5.12;3.02;;;;;;;38.34;24.33;101116.09;1444061;99;21172;-88
2022/06/19 11:07:16;;;;;;;4.05;2.60;;;;;;;38.20;24.31;101115.64;1441762;99;21292;-88
2022/06/19 11:09:48;;;;;;;5.28;2.37;;;;;;;37.86;24.44;101109.77;1449882;97;21685;-90
2022/06/19 11:12:37;;;;;;;5.87;2.27;;;;;;;37.25;25.40;101111.02;1450149;99;21180;-88
2022/06/19 11:15:08;;;;;;;3.90;2.37;;;;;;;37.43;25.95;101101.59;1487575;94;21022;-88
2022/06/19 11:17:39;;;;;;;4.67;2.33;;;;;;;37.82;26.08;101102.80;1522138;94;21348;-88
2022/06/19 11:20:27;;;;;;;5.40;2.75;;;;;;;38.25;25.13;101098.23;1522195;93;21093;-89
2022/06/19 11:23:36;;;;;;;5.75;2.30;;;;;;;38.04;24.98;101091.88;1485519;96;21634;-86
2022/06/19 11:26:15;;;;;;;4.65;2.50;;;;;;;38.25;25.75;101099.02;1485759;96;21126;-89
2022/06/19 11:28:52;;;;;;;8.63;2.47;;;;;;;38.51;25.29;101095.01;1485550;96;21178;-86
2022/06/19 11:31:26;;;;;;;2.65;2.17;;;;;;;38.54;24.86;101096.94;1485563;96;21154;-86
2022/06/19 11:33:57;;;;;;;3.47;2.30;;;;;;;38.58;25.49;101089.96;1429352;100;21002;-87
2022/06/19 11:36:29;;;;;;;8.90;2.45;;;;;;;38.67;25.64;101093.56;1443964;97;21281;-84
2022/06/19 11:38:55;;;;;;;2.90;2.37;;;;;;;38.81;25.88;101087.55;1400545;102;21648;-85
2022/06/19 11:41:36;;;;;;;3.22;2.40;;;;;;;38.77;25.97;101086.05;1380292;104;21544;-87
2022/06/19 11:44:18;;;;;;;4.65;2.60;;;;;;;38.84;26.10;101091.52;1391881;103;21218;-86
2022/06/19 11:46:51;;;;;;;6.83;2.42;;;;;;;38.64;26.35;101100.09;1380150;104;21715;-85
2022/06/19 11:49:28;;;;;;;3.58;2.30;;;;;;;38.73;26.22;101089.59;1391813;103;21621;-87
2022/06/19 11:52:01;;;;;;;7.05;2.70;;;;;;;38.76;25.65;101078.84;1392841;103;21154;-89